Time;durP1;ratioP1;P1;durP2;ratioP2;P2;SDS_P1;SDS_P2;PMS_P1;PMS_P2;Temp;Humidity;BMP_temperature;BMP_pressure;BME280_temperature;BME280_humidity;BME280_pressure;Samples;Min_cycle;Max_cycle;Signal;HPM_P1;HPM_P2
2023/06/16 00:01:57;;;;;;;8.40;6.60;;;17.80;10.20;;;;;;5028936;28;20478;-63
2023/06/16 00:04:25;;;;;;;10.17;6.17;;;17.70;10.30;;;;;;5025441;28;20488;-64
2023/06/16 00:06:54;;;;;;;9.20;6.33;;;17.70;10.10;;;;;;5025359;28;20447;-64
2023/06/16 00:09:25;;;;;;;10.90;6.30;;;17.70;10.50;;;;;;5024555;28;20458;-63
2023/06/16 00:11:52;;;;;;;9.23;6.20;;;17.70;10.70;;;;;;5026328;28;21025;-64
2023/06/16 00:14:19;;;;;;;9.90;6.37;;;17.60;11.10;;;;;;5021940;28;20459;-63
2023/06/16 00:16:47;;;;;;;11.53;8.20;;;17.60;11.10;;;;;;5026412;28;20482;-63
2023/06/16 00:19:15;;;;;;;12.43;7.63;;;17.60;11.60;;;;;;5019353;28;20539;-62
2023/06/16 00:21:45;;;;;;;12.07;7.30;;;17.60;12.10;;;;;;5023388;28;20532;-63
2023/06/16 00:24:13;;;;;;;13.00;7.77;;;17.40;12.00;;;;;;5022457;28;20551;-63
2023/06/16 00:26:40;;;;;;;9.80;7.20;;;17.40;11.90;;;;;;5026088;28;20822;-63
2023/06/16 00:29:07;;;;;;;10.17;7.43;;;17.20;12.40;;;;;;5016016;28;20462;-64
2023/06/16 00:31:34;;;;;;;10.13;7.70;;;17.10;13.20;;;;;;5026811;28;20475;-64
2023/06/16 00:34:01;;;;;;;9.97;7.50;;;17.00;13.10;;;;;;5026485;28;20470;-64
2023/06/16 00:36:28;;;;;;;9.40;7.37;;;17.00;13.30;;;;;;5027018;28;20487;-63
2023/06/16 00:38:57;;;;;;;11.63;8.03;;;16.90;13.20;;;;;;5044740;28;20462;-63
2023/06/16 00:41:25;;;;;;;14.53;8.60;;;16.90;13.30;;;;;;5041198;28;20455;-64
2023/06/16 00:43:53;;;;;;;11.00;8.00;;;16.80;13.90;;;;;;5022867;28;20463;-63
2023/06/16 00:46:27;;;;;;;11.83;7.33;;;16.70;14.10;;;;;;5024773;28;21178;-64
2023/06/16 00:48:54;;;;;;;12.50;7.83;;;16.60;14.40;;;;;;5028780;28;20454;-62
2023/06/16 00:51:21;;;;;;;12.00;7.33;;;16.50;14.40;;;;;;5030353;28;20455;-63
2023/06/16 00:53:48;;;;;;;11.60;8.53;;;16.50;14.60;;;;;;5030445;28;20454;-62
2023/06/16 00:56:16;;;;;;;13.60;7.70;;;16.40;14.70;;;;;;5028868;28;20483;-64
2023/06/16 00:58:44;;;;;;;12.17;7.73;;;16.40;14.80;;;;;;5026648;28;20462;-63
2023/06/16 01:01:12;;;;;;;11.00;6.97;;;16.40;14.80;;;;;;5025280;28;20483;-63
2023/06/16 01:03:40;;;;;;;11.47;7.37;;;16.40;15.00;;;;;;5028900;28;20481;-63
2023/06/16 01:06:15;;;;;;;16.40;8.57;;;16.40;14.80;;;;;;5034908;28;21339;-64
2023/06/16 01:08:48;;;;;;;12.50;8.00;;;16.30;14.60;;;;;;5029241;28;20464;-63
2023/06/16 01:11:21;;;;;;;10.20;8.10;;;16.40;14.50;;;;;;5027842;28;20456;-63
2023/06/16 01:14:03;;;;;;;12.43;7.93;;;16.30;14.40;;;;;;5026309;28;20807;-63
2023/06/16 01:16:31;;;;;;;12.43;8.50;;;16.40;14.30;;;;;;5033129;28;20482;-63
2023/06/16 01:19:02;;;;;;;10.27;7.60;;;16.40;14.10;;;;;;5025019;28;20502;-63
2023/06/16 01:21:37;;;;;;;9.50;6.97;;;16.40;14.10;;;;;;5029668;28;20528;-63
2023/06/16 01:24:09;;;;;;;9.43;7.50;;;16.50;13.70;;;;;;5029574;28;20455;-63
2023/06/16 01:26:41;;;;;;;11.00;6.87;;;16.50;13.80;;;;;;5025262;28;20451;-63
2023/06/16 01:29:11;;;;;;;10.90;8.00;;;16.50;13.80;;;;;;5029005;28;20476;-62
2023/06/16 01:31:39;;;;;;;10.00;7.53;;;16.50;13.80;;;;;;5039002;28;21012;-63
2023/06/16 01:34:08;;;;;;;12.30;8.37;;;16.50;13.90;;;;;;5023454;28;20452;-63
2023/06/16 01:36:37;;;;;;;10.10;7.60;;;16.40;14.10;;;;;;5024647;28;20483;-63
2023/06/16 01:39:07;;;;;;;10.60;7.60;;;16.40;14.30;;;;;;5027782;28;20462;-63
2023/06/16 01:41:36;;;;;;;10.90;8.20;;;16.30;14.90;;;;;;5025504;28;20468;-63
2023/06/16 01:44:03;;;;;;;10.40;8.00;;;16.20;15.20;;;;;;5027531;28;20463;-63
2023/06/16 01:46:31;;;;;;;12.50;8.20;;;16.10;15.60;;;;;;5026063;28;20450;-63
2023/06/16 01:48:59;;;;;;;10.40;7.33;;;16.00;15.60;;;;;;5027814;28;20467;-63
2023/06/16 01:51:26;;;;;;;11.40;8.00;;;16.00;15.70;;;;;;5027538;28;20462;-63
2023/06/16 01:53:54;;;;;;;10.30;8.00;;;15.90;15.70;;;;;;5024089;28;20500;-63
2023/06/16 01:56:22;;;;;;;10.10;7.80;;;15.90;15.60;;;;;;5028266;28;20498;-63
2023/06/16 01:58:49;;;;;;;9.70;7.47;;;15.90;15.40;;;;;;5025952;28;20474;-63
2023/06/16 02:01:23;;;;;;;12.10;7.33;;;15.90;15.30;;;;;;5026941;28;20479;-63
2023/06/16 02:03:54;;;;;;;10.67;7.77;;;15.90;15.40;;;;;;5029899;28;20954;-64
2023/06/16 02:06:26;;;;;;;10.93;8.13;;;15.80;15.30;;;;;;5028938;28;20462;-63
2023/06/16 02:08:56;;;;;;;10.20;7.47;;;15.80;15.20;;;;;;5021149;28;20474;-63
2023/06/16 02:11:25;;;;;;;11.30;8.73;;;15.80;15.30;;;;;;5027106;28;20955;-63
2023/06/16 02:13:52;;;;;;;9.97;7.13;;;15.70;15.60;;;;;;5024240;28;20840;-62
2023/06/16 02:16:19;;;;;;;11.97;7.53;;;15.70;15.60;;;;;;5025085;28;20471;-63
2023/06/16 02:18:45;;;;;;;11.20;7.93;;;15.70;15.70;;;;;;5025269;28;20560;-63
2023/06/16 02:21:12;;;;;;;10.90;8.37;;;15.70;15.40;;;;;;5020743;28;20459;-63
2023/06/16 02:23:39;;;;;;;12.37;8.40;;;15.70;15.40;;;;;;5026011;28;20487;-63
2023/06/16 02:26:05;;;;;;;12.63;9.20;;;15.60;15.50;;;;;;5022263;28;20462;-63
2023/06/16 02:28:34;;;;;;;12.13;8.70;;;15.60;15.60;;;;;;5024256;28;20466;-63
2023/06/16 02:31:00;;;;;;;10.27;7.57;;;15.60;15.70;;;;;;5023111;28;20471;-63
2023/06/16 02:33:28;;;;;;;10.80;8.20;;;15.60;15.70;;;;;;5022111;28;20471;-63
2023/06/16 02:35:54;;;;;;;10.27;7.20;;;15.60;15.70;;;;;;5018505;28;20460;-63
2023/06/16 02:38:21;;;;;;;11.40;7.97;;;15.50;15.90;;;;;;5018668;28;20505;-63
2023/06/16 02:40:48;;;;;;;9.87;7.80;;;15.50;16.20;;;;;;5024106;28;20462;-63
2023/06/16 02:43:15;;;;;;;11.33;8.77;;;15.40;16.50;;;;;;5024529;28;20483;-63
2023/06/16 02:45:43;;;;;;;11.03;7.93;;;15.40;16.90;;;;;;5023685;28;20453;-63
2023/06/16 02:48:10;;;;;;;12.10;7.73;;;15.30;17.00;;;;;;5028427;28;20462;-62
2023/06/16 02:50:36;;;;;;;10.97;8.57;;;15.30;16.70;;;;;;5024107;28;20447;-63
2023/06/16 02:53:05;;;;;;;12.30;8.10;;;15.40;16.60;;;;;;5026474;28;20819;-63
2023/06/16 02:55:32;;;;;;;10.17;7.97;;;15.40;16.80;;;;;;5022562;28;20494;-62
2023/06/16 02:57:59;;;;;;;10.23;7.83;;;15.30;16.70;;;;;;5021369;28;20566;-63
2023/06/16 03:00:26;;;;;;;13.40;7.70;;;15.30;17.20;;;;;;5023730;28;20947;-63
2023/06/16 03:02:54;;;;;;;10.50;8.30;;;15.30;17.30;;;;;;5025111;28;20487;-64
2023/06/16 03:05:23;;;;;;;13.40;9.00;;;15.30;17.20;;;;;;5022955;28;20477;-63
2023/06/16 03:07:50;;;;;;;11.47;8.70;;;15.30;17.20;;;;;;5025305;28;20452;-63
2023/06/16 03:10:17;;;;;;;11.77;8.50;;;15.30;17.30;;;;;;5022328;28;20459;-64
2023/06/16 03:12:43;;;;;;;9.83;7.60;;;15.30;17.20;;;;;;5027017;28;20475;-63
2023/06/16 03:15:10;;;;;;;10.87;7.87;;;15.30;17.10;;;;;;5024468;28;20480;-63
2023/06/16 03:17:37;;;;;;;13.60;9.27;;;15.40;17.30;;;;;;5022685;28;20478;-63
2023/06/16 03:20:07;;;;;;;10.40;7.63;;;15.40;17.40;;;;;;5020000;28;20488;-63
2023/06/16 03:22:34;;;;;;;11.83;8.70;;;15.40;17.30;;;;;;5023185;28;21072;-63
2023/06/16 03:25:02;;;;;;;12.27;9.30;;;15.40;17.40;;;;;;5022943;28;20975;-63
2023/06/16 03:27:29;;;;;;;10.30;7.90;;;15.30;17.40;;;;;;5024334;28;22329;-63
2023/06/16 03:29:56;;;;;;;9.87;8.20;;;15.30;17.80;;;;;;5028901;28;20467;-63
2023/06/16 03:32:23;;;;;;;11.63;9.30;;;15.30;18.00;;;;;;5022547;28;21184;-63
2023/06/16 03:34:50;;;;;;;11.83;9.13;;;15.40;18.50;;;;;;5025378;28;20466;-63
2023/06/16 03:37:18;;;;;;;11.70;8.80;;;15.40;19.00;;;;;;5024190;28;20501;-63
2023/06/16 03:39:44;;;;;;;12.53;8.90;;;15.40;19.20;;;;;;5023498;28;20494;-63
2023/06/16 03:42:11;;;;;;;11.50;9.63;;;15.50;19.50;;;;;;5026067;28;20665;-63
2023/06/16 03:44:38;;;;;;;11.70;9.40;;;15.50;19.70;;;;;;5021851;28;20451;-63
2023/06/16 03:47:06;;;;;;;11.20;8.93;;;15.50;19.80;;;;;;5024625;28;20455;-63
2023/06/16 03:49:32;;;;;;;11.97;10.17;;;15.60;19.70;;;;;;5027535;28;20465;-63
2023/06/16 03:51:59;;;;;;;12.20;9.60;;;15.60;19.50;;;;;;5026999;28;20474;-63
2023/06/16 03:54:27;;;;;;;11.27;10.07;;;15.60;19.50;;;;;;5041156;28;21259;-63
2023/06/16 03:56:55;;;;;;;12.37;9.57;;;15.60;19.40;;;;;;5038880;28;20486;-63
2023/06/16 03:59:22;;;;;;;14.20;10.17;;;15.70;19.40;;;;;;5021477;28;20451;-63
2023/06/16 04:01:51;;;;;;;13.90;10.67;;;15.70;19.50;;;;;;5023343;28;20474;-63
2023/06/16 04:04:18;;;;;;;13.57;9.47;;;15.70;19.40;;;;;;5024737;28;20522;-63
2023/06/16 04:06:44;;;;;;;11.60;9.53;;;15.70;19.30;;;;;;5021731;28;21050;-62
2023/06/16 04:09:11;;;;;;;13.73;10.00;;;15.70;19.10;;;;;;5016275;28;20482;-63
2023/06/16 04:11:40;;;;;;;11.87;9.53;;;15.70;19.20;;;;;;5018259;28;20479;-64
2023/06/16 04:14:09;;;;;;;12.20;9.40;;;15.70;19.10;;;;;;5012214;28;20486;-64
2023/06/16 04:16:37;;;;;;;12.73;10.60;;;15.70;19.20;;;;;;5021468;28;20451;-63
2023/06/16 04:19:06;;;;;;;13.60;10.23;;;15.70;19.00;;;;;;5017442;28;20826;-63
2023/06/16 04:21:33;;;;;;;13.30;10.60;;;15.70;19.00;;;;;;5019956;28;20514;-63
2023/06/16 04:24:00;;;;;;;12.60;9.40;;;15.80;19.00;;;;;;5023400;28;20459;-63
2023/06/16 04:26:28;;;;;;;11.80;9.87;;;15.80;18.80;;;;;;5022198;28;20487;-64
2023/06/16 04:29:00;;;;;;;13.80;10.90;;;15.90;19.00;;;;;;5020683;28;20516;-65
2023/06/16 04:31:29;;;;;;;11.90;9.47;;;16.00;18.80;;;;;;5020688;28;20493;-64
2023/06/16 04:33:57;;;;;;;11.90;10.10;;;16.10;18.90;;;;;;5017678;28;20455;-64
2023/06/16 04:36:25;;;;;;;13.10;10.40;;;16.10;18.90;;;;;;5021904;28;20473;-64
2023/06/16 04:38:52;;;;;;;13.23;10.30;;;16.30;19.00;;;;;;5026310;28;20879;-64
2023/06/16 04:41:18;;;;;;;11.73;8.83;;;16.90;18.70;;;;;;5019950;28;20451;-64
2023/06/16 04:43:45;;;;;;;13.33;10.00;;;18.10;16.90;;;;;;5017252;28;21314;-64
2023/06/16 04:46:13;;;;;;;11.17;9.80;;;19.40;14.30;;;;;;5022766;28;20463;-63
2023/06/16 04:48:40;;;;;;;10.60;8.43;;;20.60;11.70;;;;;;5015955;28;20463;-65
2023/06/16 04:51:06;;;;;;;12.67;9.17;;;21.60;9.20;;;;;;5017237;28;20463;-64
2023/06/16 04:53:34;;;;;;;10.60;8.17;;;22.60;7.10;;;;;;5017011;28;20516;-64
2023/06/16 04:56:01;;;;;;;10.80;8.80;;;23.30;5.50;;;;;;5046819;22;21066;-68
2023/06/16 04:58:29;;;;;;;13.03;8.63;;;23.20;4.30;;;;;;5042672;28;20481;-69
2023/06/16 05:00:56;;;;;;;10.50;8.43;;;23.40;4.00;;;;;;5043658;28;20520;-68
2023/06/16 05:03:24;;;;;;;9.70;7.50;;;24.40;2.80;;;;;;5029921;28;20552;-68
2023/06/16 05:05:50;;;;;;;11.67;7.90;;;25.50;1.00;;;;;;5027944;28;20459;-68
2023/06/16 05:08:18;;;;;;;10.30;7.60;;;26.40;1.00;;;;;;5025514;28;20466;-69
2023/06/16 05:10:45;;;;;;;9.17;7.23;;;27.10;1.00;;;;;;5023295;28;20467;-71
2023/06/16 05:13:12;;;;;;;10.70;7.90;;;27.30;1.00;;;;;;5038411;28;20840;-70
2023/06/16 05:15:39;;;;;;;10.70;8.00;;;26.60;1.00;;;;;;5023206;28;20463;-69
2023/06/16 05:18:06;;;;;;;9.87;7.93;;;25.90;1.00;;;;;;5026308;28;20484;-69
2023/06/16 05:20:34;;;;;;;10.20;8.20;;;25.10;1.00;;;;;;5026817;28;20916;-68
2023/06/16 05:23:03;;;;;;;10.90;8.40;;;24.80;1.20;;;;;;5031428;28;20562;-69
2023/06/16 05:25:30;;;;;;;10.20;8.10;;;24.70;1.30;;;;;;5018654;28;20983;-70
2023/06/16 05:27:56;;;;;;;9.50;8.43;;;24.30;1.40;;;;;;5025104;28;20974;-69
2023/06/16 05:30:23;;;;;;;13.40;8.30;;;24.00;2.40;;;;;;5024628;28;20458;-70
2023/06/16 05:32:50;;;;;;;12.47;8.60;;;25.10;2.00;;;;;;5031535;28;20490;-69
2023/06/16 05:35:16;;;;;;;9.53;8.20;;;25.60;1.00;;;;;;5028609;28;20461;-67
2023/06/16 05:37:44;;;;;;;11.70;8.60;;;25.30;1.00;;;;;;5022475;28;20482;-67
2023/06/16 05:40:12;;;;;;;12.07;9.27;;;24.80;1.30;;;;;;5025128;28;20479;-68
2023/06/16 05:42:38;;;;;;;14.20;8.43;;;24.40;2.20;;;;;;5022383;28;20486;-67
2023/06/16 05:45:06;;;;;;;11.10;8.80;;;24.10;2.60;;;;;;5033822;28;20463;-67
2023/06/16 05:47:33;;;;;;;15.73;9.23;;;23.80;3.20;;;;;;5030661;28;20475;-67
2023/06/16 05:50:00;;;;;;;13.43;9.77;;;23.60;3.40;;;;;;5026759;28;20489;-67
2023/06/16 05:52:27;;;;;;;10.00;8.20;;;23.80;3.50;;;;;;5028352;28;20486;-67
2023/06/16 05:54:55;;;;;;;11.30;9.53;;;23.70;3.30;;;;;;5021719;28;20464;-68
2023/06/16 05:57:21;;;;;;;12.00;8.77;;;23.60;3.50;;;;;;5036969;28;20604;-67
2023/06/16 05:59:49;;;;;;;11.43;8.90;;;23.30;3.70;;;;;;5027802;28;20557;-67
2023/06/16 06:02:17;;;;;;;10.67;9.40;;;23.10;4.00;;;;;;5030171;28;20475;-67
2023/06/16 06:04:43;;;;;;;12.03;8.83;;;22.90;4.20;;;;;;5024034;28;20832;-67
2023/06/16 06:07:10;;;;;;;11.77;10.00;;;22.60;4.70;;;;;;5030846;28;20470;-67
2023/06/16 06:09:37;;;;;;;11.93;9.83;;;22.40;4.90;;;;;;5021528;28;20463;-67
2023/06/16 06:12:06;;;;;;;9.37;8.30;;;22.20;5.30;;;;;;5028745;28;20475;-67
2023/06/16 06:14:32;;;;;;;11.40;9.27;;;21.90;5.70;;;;;;5017591;28;20508;-68
2023/06/16 06:16:59;;;;;;;17.87;9.67;;;21.70;6.50;;;;;;5020043;28;20462;-68
2023/06/16 06:19:26;;;;;;;16.23;10.23;;;21.50;7.10;;;;;;5023306;28;20516;-68
2023/06/16 06:21:53;;;;;;;13.77;8.97;;;21.50;7.60;;;;;;5028447;28;20502;-67
2023/06/16 06:24:20;;;;;;;11.90;8.57;;;21.50;7.70;;;;;;5025629;28;20824;-68
2023/06/16 06:26:47;;;;;;;13.47;8.70;;;21.50;8.00;;;;;;5022672;28;21036;-68
2023/06/16 06:29:16;;;;;;;12.73;9.30;;;21.60;7.60;;;;;;5027085;28;20458;-68
2023/06/16 06:31:42;;;;;;;11.30;9.27;;;21.90;7.00;;;;;;5029140;28;20567;-67
2023/06/16 06:34:09;;;;;;;11.00;8.73;;;22.30;6.50;;;;;;5030386;28;20474;-68
2023/06/16 06:36:39;;;;;;;13.87;8.73;;;23.00;5.70;;;;;;5023142;28;20815;-68
2023/06/16 06:39:06;;;;;;;12.10;8.83;;;24.40;3.30;;;;;;5012154;28;20490;-70
2023/06/16 06:41:33;;;;;;;11.37;8.40;;;25.60;1.00;;;;;;5018718;28;20495;-70
2023/06/16 06:44:00;;;;;;;10.90;8.00;;;26.80;1.00;;;;;;5019888;28;20467;-69
2023/06/16 06:46:28;;;;;;;9.70;8.07;;;29.50;1.00;;;;;;5018462;28;20467;-69
2023/06/16 06:48:55;;;;;;;12.57;8.67;;;32.70;1.00;;;;;;5026727;28;20463;-69
2023/06/16 06:51:22;;;;;;;9.30;7.13;;;35.20;1.00;;;;;;5025754;28;20567;-69
2023/06/16 06:53:49;;;;;;;8.73;6.83;;;37.10;1.00;;;;;;5023877;28;20467;-71
2023/06/16 06:56:16;;;;;;;10.83;6.20;;;38.70;1.00;;;;;;5023668;28;20566;-71
2023/06/16 06:58:43;;;;;;;8.90;6.07;;;40.10;1.00;;;;;;5025889;28;21392;-71
2023/06/16 07:01:09;;;;;;;11.93;6.47;;;41.50;1.00;;;;;;5027597;28;20466;-70
2023/06/16 07:03:37;;;;;;;7.30;6.43;;;42.60;1.00;;;;;;5029681;28;20478;-70
2023/06/16 07:06:04;;;;;;;7.83;6.27;;;43.60;1.00;;;;;;5018745;28;20471;-71
2023/06/16 07:08:31;;;;;;;8.70;6.20;;;44.50;1.00;;;;;;5024695;28;20454;-70
2023/06/16 07:10:59;;;;;;;12.17;6.27;;;44.90;1.00;;;;;;5023523;28;20468;-70
2023/06/16 07:13:25;;;;;;;7.40;5.47;;;45.40;1.00;;;;;;5019557;28;21017;-70
2023/06/16 07:15:52;;;;;;;6.07;5.23;;;45.40;1.00;;;;;;5029104;28;20466;-71
2023/06/16 07:18:19;;;;;;;7.80;5.83;;;45.70;1.00;;;;;;5021833;28;20489;-71
2023/06/16 07:20:47;;;;;;;8.30;6.10;;;44.40;1.00;;;;;;5026839;28;20542;-71
2023/06/16 07:23:14;;;;;;;7.33;5.60;;;44.70;1.00;;;;;;5035056;28;20485;-70
2023/06/16 07:25:41;;;;;;;9.20;5.67;;;45.80;1.00;;;;;;5017386;28;20464;-70
2023/06/16 07:28:08;;;;;;;8.47;6.40;;;45.10;1.00;;;;;;5025337;28;20459;-70
2023/06/16 07:30:35;;;;;;;7.23;5.57;;;44.50;1.00;;;;;;5016864;28;20474;-70
2023/06/16 07:33:01;;;;;;;7.23;5.70;;;45.60;1.00;;;;;;5022184;28;20474;-71
2023/06/16 07:35:29;;;;;;;7.67;5.37;;;46.90;1.00;;;;;;5023431;28;20468;-70
2023/06/16 07:37:57;;;;;;;7.30;5.60;;;48.10;1.00;;;;;;5025359;28;20475;-69
2023/06/16 07:40:24;;;;;;;6.50;4.57;;;49.10;1.00;;;;;;5027651;28;20472;-68
2023/06/16 07:42:50;;;;;;;7.50;5.23;;;49.80;1.00;;;;;;5028884;28;20956;-71
2023/06/16 07:45:17;;;;;;;8.23;5.27;;;50.70;1.00;;;;;;5019382;28;20467;-67
2023/06/16 07:47:46;;;;;;;6.67;4.57;;;51.20;1.00;;;;;;5018188;28;20974;-67
2023/06/16 07:50:13;;;;;;;6.63;4.97;;;51.80;1.00;;;;;;5021236;28;20611;-66
2023/06/16 07:52:41;;;;;;;8.37;4.23;;;52.30;1.00;;;;;;5038511;23;20481;-68
2023/06/16 07:55:10;;;;;;;5.10;3.33;;;52.70;1.00;;;;;;5043963;28;20470;-68
2023/06/16 07:57:38;;;;;;;6.90;4.50;;;53.20;1.00;;;;;;5042416;28;20472;-67
2023/06/16 08:00:10;;;;;;;7.63;4.13;;;53.70;1.00;;;;;;5041990;28;20965;-67
2023/06/16 08:02:38;;;;;;;5.90;4.27;;;54.30;1.00;;;;;;5036384;28;20572;-65
2023/06/16 08:05:06;;;;;;;6.17;4.43;;;54.40;1.00;;;;;;5047236;28;20466;-66
2023/06/16 08:07:32;;;;;;;5.80;4.23;;;54.70;1.00;;;;;;5043300;28;20461;-69
2023/06/16 08:10:00;;;;;;;5.87;3.70;;;54.80;1.00;;;;;;5045399;28;20465;-70
2023/06/16 08:12:28;;;;;;;5.60;3.60;;;55.10;1.00;;;;;;5040481;28;20494;-71
2023/06/16 08:14:54;;;;;;;8.40;3.53;;;55.30;1.00;;;;;;5042605;28;21111;-70
2023/06/16 08:17:21;;;;;;;8.20;3.90;;;55.50;1.00;;;;;;5045344;28;20465;-69
2023/06/16 08:19:48;;;;;;;5.03;3.50;;;55.90;1.00;;;;;;5042853;28;20220;-71
2023/06/16 08:22:15;;;;;;;8.10;3.40;;;55.90;1.00;;;;;;5045256;28;20875;-71
2023/06/16 08:24:41;;;;;;;7.27;4.57;;;56.30;1.00;;;;;;5042116;28;20203;-69
2023/06/16 08:27:08;;;;;;;7.20;3.30;;;56.60;1.00;;;;;;5042283;28;20202;-70
2023/06/16 08:29:36;;;;;;;8.93;3.85;;;56.60;1.00;;;;;;5042795;28;20682;-70
2023/06/16 08:32:05;;;;;;;6.77;4.10;;;55.00;1.00;;;;;;5037572;28;20224;-70
2023/06/16 08:34:32;;;;;;;5.33;3.60;;;53.10;1.00;;;;;;5046952;28;20461;-70
2023/06/16 08:37:01;;;;;;;5.30;3.53;;;53.30;1.00;;;;;;5042167;28;20985;-70
2023/06/16 08:39:28;;;;;;;7.30;3.73;;;54.00;1.00;;;;;;5038524;28;21116;-70
2023/06/16 08:41:56;;;;;;;7.53;3.90;;;54.80;1.00;;;;;;5041922;28;20488;-70
2023/06/16 08:44:23;;;;;;;8.40;3.43;;;55.10;1.00;;;;;;5045544;28;20462;-73
2023/06/16 08:46:51;;;;;;;5.40;3.63;;;54.80;1.00;;;;;;5042001;28;23191;-72
2023/06/16 08:49:19;;;;;;;6.47;3.53;;;53.80;1.00;;;;;;5042196;28;20969;-72
2023/06/16 08:51:48;;;;;;;8.07;3.63;;;52.10;1.00;;;;;;5044684;28;20485;-71
2023/06/16 08:54:16;;;;;;;8.73;4.70;;;48.90;1.00;;;;;;5040900;28;20461;-72
2023/06/16 08:56:44;;;;;;;6.27;3.80;;;47.40;1.00;;;;;;5042481;28;20553;-71
2023/06/16 08:59:12;;;;;;;7.43;3.90;;;48.70;1.00;;;;;;5035054;28;20493;-70
2023/06/16 09:01:40;;;;;;;5.73;3.90;;;47.90;1.00;;;;;;5039262;28;20474;-70
2023/06/16 09:04:09;;;;;;;7.77;4.50;;;46.00;1.00;;;;;;5038417;28;20481;-70
2023/06/16 09:06:36;;;;;;;5.80;3.57;;;44.20;1.00;;;;;;5039363;28;20562;-70
2023/06/16 09:09:04;;;;;;;7.00;3.90;;;43.10;1.00;;;;;;5044433;28;20589;-70
2023/06/16 09:11:31;;;;;;;5.27;3.57;;;44.20;1.00;;;;;;5048255;28;20563;-70
2023/06/16 09:13:58;;;;;;;9.00;4.00;;;46.00;1.00;;;;;;5049040;28;20466;-70
2023/06/16 09:16:24;;;;;;;7.70;3.70;;;48.00;1.00;;;;;;5043302;28;20458;-73
2023/06/16 09:18:51;;;;;;;6.77;3.53;;;47.20;1.00;;;;;;5046573;28;20516;-73
2023/06/16 09:21:22;;;;;;;8.57;3.40;;;44.70;1.00;;;;;;5046112;28;20523;-74
2023/06/16 09:23:56;;;;;;;7.37;4.20;;;42.20;1.00;;;;;;5045479;28;21035;-73
2023/06/16 09:26:24;;;;;;;6.57;3.40;;;40.10;1.00;;;;;;5046877;28;20497;-73
2023/06/16 09:28:51;;;;;;;8.33;3.90;;;38.60;1.00;;;;;;5042301;28;20464;-73
2023/06/16 09:31:19;;;;;;;8.13;3.90;;;37.70;1.00;;;;;;5043002;28;21082;-73
2023/06/16 09:33:46;;;;;;;9.50;4.10;;;37.30;1.00;;;;;;5045915;28;20864;-73
2023/06/16 09:36:26;;;;;;;6.53;4.10;;;36.50;1.00;;;;;;5045643;28;20465;-73
2023/06/16 09:38:54;;;;;;;9.20;4.50;;;35.70;1.00;;;;;;5048056;28;20523;-72
2023/06/16 09:41:21;;;;;;;10.80;5.00;;;34.90;1.00;;;;;;5047833;28;20464;-73
2023/06/16 09:43:48;;;;;;;9.00;4.87;;;34.40;1.00;;;;;;5039501;28;20473;-73
2023/06/16 09:46:15;;;;;;;8.47;4.50;;;34.20;1.00;;;;;;5044274;28;20462;-73
2023/06/16 09:48:46;;;;;;;7.20;3.93;;;34.00;1.00;;;;;;5042130;28;20463;-73
2023/06/16 09:51:17;;;;;;;6.57;4.37;;;33.60;1.00;;;;;;5044354;28;20453;-73
2023/06/16 09:53:45;;;;;;;7.73;4.10;;;33.20;1.00;;;;;;5042626;28;20477;-72
2023/06/16 09:56:13;;;;;;;8.50;3.77;;;32.80;1.00;;;;;;5048340;28;20477;-73
2023/06/16 09:58:40;;;;;;;9.43;3.93;;;32.50;1.00;;;;;;5049717;28;20474;-73
2023/06/16 10:01:08;;;;;;;9.93;5.00;;;32.20;1.00;;;;;;5040893;28;20491;-73
2023/06/16 10:03:39;;;;;;;6.63;3.80;;;32.00;1.00;;;;;;5045207;28;20497;-72
2023/06/16 10:06:12;;;;;;;7.50;4.40;;;31.80;1.00;;;;;;5046471;28;20494;-71
2023/06/16 10:08:40;;;;;;;7.00;4.27;;;31.60;1.00;;;;;;5043615;28;20462;-73
2023/06/16 10:11:08;;;;;;;6.83;3.43;;;31.50;1.00;;;;;;5048557;28;20493;-73
2023/06/16 10:13:38;;;;;;;8.13;4.60;;;31.40;1.00;;;;;;5050873;28;20487;-73
2023/06/16 10:16:09;;;;;;;9.83;4.40;;;31.30;1.00;;;;;;5042838;28;20473;-73
2023/06/16 10:18:37;;;;;;;8.33;4.20;;;31.30;1.00;;;;;;5047613;28;20462;-73
2023/06/16 10:21:04;;;;;;;6.73;3.60;;;31.00;1.00;;;;;;5044404;28;21068;-73
2023/06/16 10:23:31;;;;;;;6.70;4.10;;;30.90;1.00;;;;;;5046522;28;21064;-73
2023/06/16 10:25:59;;;;;;;8.00;4.60;;;30.70;1.00;;;;;;5043786;28;20469;-73
2023/06/16 10:28:27;;;;;;;6.33;3.50;;;30.60;1.00;;;;;;5044141;28;20493;-73
2023/06/16 10:30:56;;;;;;;9.63;4.40;;;30.40;1.00;;;;;;5038815;28;20489;-73
2023/06/16 10:33:25;;;;;;;6.57;4.30;;;30.30;1.00;;;;;;5037035;28;20492;-73
2023/06/16 10:35:54;;;;;;;8.63;4.10;;;30.10;1.00;;;;;;5043175;28;20978;-73
2023/06/16 10:38:25;;;;;;;7.00;3.63;;;30.00;1.00;;;;;;5035606;28;20470;-73
2023/06/16 10:40:58;;;;;;;7.73;4.27;;;29.70;1.00;;;;;;5039509;28;20469;-74
2023/06/16 10:43:26;;;;;;;9.23;4.60;;;29.60;1.00;;;;;;5035572;28;20896;-73
2023/06/16 10:46:13;;;;;;;9.07;4.17;;;29.40;1.00;;;;;;5034019;28;20563;-73
2023/06/16 10:49:15;;;;;;;7.47;3.90;;;29.30;1.00;;;;;;5036421;28;21091;-73
2023/06/16 10:51:44;;;;;;;6.33;3.83;;;29.30;1.00;;;;;;5033183;28;20488;-74
2023/06/16 10:54:13;;;;;;;7.47;4.30;;;29.10;1.00;;;;;;5036185;28;21980;-73
2023/06/16 10:57:02;;;;;;;7.33;4.03;;;29.00;1.00;;;;;;5035321;28;20474;-73
2023/06/16 10:59:29;;;;;;;10.47;4.53;;;29.10;1.00;;;;;;5036093;28;20521;-73
2023/06/16 11:01:58;;;;;;;8.90;4.50;;;29.20;1.00;;;;;;5039611;28;24405;-73
2023/06/16 11:04:26;;;;;;;10.50;4.47;;;29.20;1.00;;;;;;5035952;28;20462;-73
2023/06/16 11:07:09;;;;;;;8.07;4.30;;;29.20;1.00;;;;;;5039843;28;20601;-73
2023/06/16 11:09:36;;;;;;;8.90;5.03;;;29.10;1.00;;;;;;5036631;28;20464;-73
2023/06/16 11:12:04;;;;;;;6.80;4.10;;;29.10;1.00;;;;;;5036350;28;20492;-73
2023/06/16 11:14:30;;;;;;;9.97;4.20;;;28.90;1.00;;;;;;5036744;28;20466;-74
2023/06/16 11:16:59;;;;;;;10.70;4.90;;;28.70;1.00;;;;;;5039390;28;20476;-73
2023/06/16 11:19:26;;;;;;;8.03;4.23;;;28.50;1.00;;;;;;5040203;28;21077;-73
2023/06/16 11:21:53;;;;;;;8.40;4.10;;;28.40;1.00;;;;;;5042707;28;20864;-73
2023/06/16 11:24:20;;;;;;;6.73;4.40;;;28.40;1.00;;;;;;5038662;28;20466;-73
2023/06/16 11:26:46;;;;;;;10.10;5.20;;;28.30;1.00;;;;;;5033617;28;21379;-73
2023/06/16 11:29:15;;;;;;;6.90;4.10;;;28.20;1.00;;;;;;5039007;28;20472;-73
2023/06/16 11:31:42;;;;;;;9.40;4.80;;;28.10;1.00;;;;;;5036032;28;20944;-73
2023/06/16 11:34:10;;;;;;;8.53;4.60;;;28.00;1.00;;;;;;5041831;28;20458;-73
2023/06/16 11:36:37;;;;;;;7.80;4.07;;;28.00;1.00;;;;;;5044709;28;20888;-73
2023/06/16 11:39:11;;;;;;;8.53;4.50;;;28.00;1.00;;;;;;5042880;28;21034;-73
2023/06/16 11:41:38;;;;;;;11.17;4.90;;;27.90;1.00;;;;;;5039696;28;20550;-73
2023/06/16 11:44:05;;;;;;;11.97;5.37;;;27.90;1.00;;;;;;5039968;28;20552;-73
2023/06/16 11:46:33;;;;;;;9.07;4.90;;;27.90;1.00;;;;;;5042512;28;20471;-73
2023/06/16 11:49:02;;;;;;;7.80;4.60;;;27.90;1.00;;;;;;5041753;28;20822;-73
2023/06/16 11:51:30;;;;;;;6.50;4.20;;;27.80;1.00;;;;;;5038528;28;20490;-73
2023/06/16 11:53:58;;;;;;;8.60;4.60;;;27.80;1.00;;;;;;5043589;28;20505;-74
2023/06/16 11:56:26;;;;;;;8.77;5.13;;;27.70;1.00;;;;;;5041833;28;20467;-73
2023/06/16 11:58:53;;;;;;;8.63;4.70;;;27.70;1.00;;;;;;5034934;28;20463;-73
2023/06/16 12:01:21;;;;;;;9.93;4.90;;;27.70;1.00;;;;;;5040070;28;20488;-73
2023/06/16 12:03:49;;;;;;;8.27;4.77;;;27.60;1.00;;;;;;5045230;28;20489;-73
2023/06/16 12:06:16;;;;;;;13.13;5.50;;;27.60;1.00;;;;;;5038277;28;20523;-73
2023/06/16 12:08:45;;;;;;;7.30;4.93;;;27.50;1.00;;;;;;5039704;28;20961;-73
2023/06/16 12:11:15;;;;;;;10.10;4.90;;;27.50;1.00;;;;;;5042680;28;20470;-73
2023/06/16 12:13:42;;;;;;;9.03;4.40;;;27.60;1.00;;;;;;5042233;28;20481;-73
2023/06/16 12:16:11;;;;;;;8.03;5.37;;;27.60;1.00;;;;;;5042811;28;20475;-73
2023/06/16 12:18:38;;;;;;;10.07;5.00;;;27.60;1.00;;;;;;5044258;28;20461;-73
2023/06/16 12:21:21;;;;;;;7.67;4.90;;;27.60;1.00;;;;;;5042451;28;20486;-73
2023/06/16 12:23:52;;;;;;;6.50;4.37;;;27.60;1.00;;;;;;5040591;28;20473;-73
2023/06/16 12:26:27;;;;;;;8.90;4.87;;;27.50;1.00;;;;;;5040080;28;20950;-72
2023/06/16 12:28:54;;;;;;;7.37;5.10;;;27.50;1.00;;;;;;5036901;28;20555;-72
2023/06/16 12:31:21;;;;;;;9.00;4.90;;;27.50;1.00;;;;;;5039578;28;21202;-71
2023/06/16 12:33:51;;;;;;;8.13;4.97;;;27.70;1.00;;;;;;5040993;28;20477;-71
2023/06/16 12:36:17;;;;;;;12.00;5.20;;;27.70;1.00;;;;;;5041436;28;20551;-71
2023/06/16 12:38:44;;;;;;;9.57;5.30;;;27.70;1.00;;;;;;5044175;28;20493;-73
2023/06/16 12:41:14;;;;;;;9.13;5.00;;;27.70;1.00;;;;;;5042327;28;20495;-72
2023/06/16 12:43:47;;;;;;;10.10;5.27;;;27.60;1.00;;;;;;5040582;28;20481;-72
2023/06/16 12:46:14;;;;;;;16.13;4.63;;;27.50;1.00;;;;;;5040029;28;20465;-73
2023/06/16 12:48:41;;;;;;;8.23;5.20;;;27.40;1.00;;;;;;5038861;28;20481;-73
2023/06/16 12:51:07;;;;;;;12.13;5.07;;;27.40;1.00;;;;;;5039980;28;20466;-72
2023/06/16 12:53:40;;;;;;;10.17;4.87;;;27.40;1.00;;;;;;5037308;28;20498;-71